Time;durP1;ratioP1;P1;durP2;ratioP2;P2;SDS_P1;SDS_P2;PMS_P1;PMS_P2;Temp;Humidity;BMP_temperature;BMP_pressure;BME280_temperature;BME280_humidity;BME280_pressure;Samples;Min_cycle;Max_cycle;Signal;HPM_P1;HPM_P2
2023/10/17 06:19:32;;;;;;;37.40;13.63;;;;;;;;;;10473767;28;20029;-82
2023/10/17 06:34:47;;;;;;;;;;;;;;;;;;10570253;28;20032;-82
2023/10/17 06:39:49;;;;;;;3.88;3.20;;;;;;;;;;10576324;28;20226;-82
2023/10/17 06:45:09;;;;;;;4.95;3.70;;;;;;;;;;10560041;28;20158;-82
2023/10/17 06:55:21;;;;;;;5.00;3.95;;;;;;;;;;10537120;28;20051;-82
2023/10/17 07:05:26;;;;;;;4.60;3.60;;;;;;;;;;10514588;28;20044;-81
2023/10/17 07:16:11;;;;;;;6.72;4.95;;;;;;;;;;10521221;28;20107;-82
2023/10/17 07:32:25;;;;;;;7.45;6.00;;;;;;;;;;10488442;28;20025;-82
2023/10/17 07:49:03;;;;;;;6.63;4.80;;;;;;;;;;10486738;28;20036;-82
2023/10/17 07:54:38;;;;;;;5.15;4.45;;;;;;;;;;10471987;28;20029;-82
2023/10/17 08:11:51;;;;;;;6.85;6.15;;;;;;;;;;10460820;28;20116;-81
2023/10/17 08:16:55;;;;;;;7.03;6.05;;;;;;;;;;10358957;28;20026;-82
2023/10/17 08:34:09;;;;;;;7.43;6.40;;;;;;;;;;10457840;28;20032;-82
2023/10/17 08:45:38;;;;;;;10.98;9.02;;;;;;;;;;10523291;28;20033;-82
2023/10/17 08:50:40;;;;;;;8.52;6.90;;;;;;;;;;10516714;28;20029;-79
2023/10/17 08:56:19;;;;;;;7.60;5.55;;;;;;;;;;10517426;28;20029;-82
2023/10/17 09:02:49;;;;;;;7.95;6.20;;;;;;;;;;10508545;28;20056;-81
2023/10/17 09:19:14;;;;;;;9.30;4.72;;;;;;;;;;10357732;28;20038;-82
2023/10/17 09:24:36;;;;;;;6.28;4.93;;;;;;;;;;10339750;28;20042;-82
2023/10/17 09:30:05;;;;;;;7.20;4.72;;;;;;;;;;10337725;28;20053;-81
2023/10/17 09:35:29;;;;;;;7.25;5.22;;;;;;;;;;10329443;28;20450;-83
2023/10/17 09:41:20;;;;;;;9.55;7.38;;;;;;;;;;10233702;29;20028;-82
2023/10/17 09:46:31;;;;;;;10.38;6.47;;;;;;;;;;10451935;28;20100;-82
2023/10/17 09:51:33;;;;;;;7.05;5.40;;;;;;;;;;10522996;28;20044;-82
2023/10/17 09:56:37;;;;;;;7.32;6.18;;;;;;;;;;10524680;28;20064;-81
2023/10/17 10:01:45;;;;;;;10.10;7.68;;;;;;;;;;10526104;28;20036;-82
2023/10/17 10:07:19;;;;;;;7.15;5.80;;;;;;;;;;10528102;28;20025;-82
2023/10/17 10:12:20;;;;;;;8.55;7.00;;;;;;;;;;10523117;28;20059;-81
2023/10/17 10:17:41;;;;;;;5.32;3.88;;;;;;;;;;10517615;28;20025;-83
2023/10/17 10:22:50;;;;;;;8.88;6.65;;;;;;;;;;10521944;28;20037;-82
2023/10/17 10:28:11;;;;;;;4.72;3.33;;;;;;;;;;10523475;28;20471;-82
2023/10/17 10:33:13;;;;;;;6.55;4.60;;;;;;;;;;10529055;28;20119;-82
2023/10/17 10:38:17;;;;;;;4.82;3.83;;;;;;;;;;10548793;28;20094;-82
2023/10/17 10:43:20;;;;;;;7.10;4.85;;;;;;;;;;10550469;28;20029;-81
2023/10/17 10:48:21;;;;;;;7.65;5.53;;;;;;;;;;10527761;28;20028;-80
2023/10/17 10:53:31;;;;;;;5.63;4.43;;;;;;;;;;10518936;28;20032;-82
2023/10/17 10:58:36;;;;;;;4.60;3.63;;;;;;;;;;10519912;28;20088;-82
2023/10/17 11:03:41;;;;;;;5.88;4.38;;;;;;;;;;10526018;28;20094;-82
2023/10/17 11:08:43;;;;;;;8.80;5.22;;;;;;;;;;10525694;28;20059;-82
2023/10/17 11:13:51;;;;;;;9.43;6.45;;;;;;;;;;10530426;28;20036;-82
2023/10/17 11:18:57;;;;;;;4.78;3.38;;;;;;;;;;10533025;28;20084;-84
2023/10/17 11:24:00;;;;;;;6.57;3.00;;;;;;;;;;10533306;28;20029;-83
2023/10/17 11:29:04;;;;;;;4.05;3.30;;;;;;;;;;10534189;28;20112;-83
2023/10/17 11:34:07;;;;;;;5.55;4.10;;;;;;;;;;10523990;28;20012;-83
2023/10/17 11:39:08;;;;;;;4.70;3.55;;;;;;;;;;10524131;28;20036;-83
2023/10/17 11:44:09;;;;;;;4.38;3.55;;;;;;;;;;10526456;28;20047;-83
2023/10/17 11:49:26;;;;;;;5.80;4.43;;;;;;;;;;10527680;28;20024;-82
2023/10/17 11:54:28;;;;;;;8.32;4.15;;;;;;;;;;10526493;28;20036;-83
2023/10/17 11:59:30;;;;;;;5.40;3.83;;;;;;;;;;10476448;22;20046;-79
2023/10/17 12:04:33;;;;;;;6.82;3.65;;;;;;;;;;10441303;28;20452;-80
2023/10/17 12:09:34;;;;;;;4.07;2.97;;;;;;;;;;10483124;28;20025;-80
2023/10/17 12:14:36;;;;;;;4.35;3.40;;;;;;;;;;10487533;28;20032;-80
2023/10/17 12:19:39;;;;;;;3.58;2.65;;;;;;;;;;10471822;28;20374;-80
2023/10/17 12:24:42;;;;;;;5.60;4.32;;;;;;;;;;10468153;28;20029;-81
2023/10/17 12:29:44;;;;;;;4.88;3.97;;;;;;;;;;10469266;28;20033;-80
2023/10/17 12:34:46;;;;;;;5.80;4.30;;;;;;;;;;10469302;28;20037;-80
2023/10/17 12:39:47;;;;;;;4.82;3.67;;;;;;;;;;10469433;28;20021;-80
2023/10/17 12:44:50;;;;;;;6.28;3.95;;;;;;;;;;10467260;28;20036;-80
2023/10/17 12:49:51;;;;;;;4.72;3.53;;;;;;;;;;10467873;28;20017;-79
2023/10/17 12:54:52;;;;;;;6.82;4.85;;;;;;;;;;10470588;28;20128;-81
2023/10/17 12:59:53;;;;;;;4.40;3.38;;;;;;;;;;10470284;28;20029;-80
2023/10/17 13:04:55;;;;;;;6.30;5.55;;;;;;;;;;10468586;28;20396;-80
2023/10/17 13:09:56;;;;;;;7.78;5.82;;;;;;;;;;10469064;28;20025;-80
2023/10/17 13:14:57;;;;;;;4.20;3.20;;;;;;;;;;10466591;28;20532;-80
2023/10/17 13:19:58;;;;;;;4.63;3.28;;;;;;;;;;10468772;28;20026;-80
2023/10/17 13:24:59;;;;;;;6.28;3.63;;;;;;;;;;10467163;28;20033;-80
2023/10/17 13:30:00;;;;;;;6.57;4.90;;;;;;;;;;10466959;28;20025;-80
2023/10/17 13:35:02;;;;;;;4.45;3.53;;;;;;;;;;10464416;28;20039;-81
2023/10/17 13:40:04;;;;;;;4.30;3.45;;;;;;;;;;10464959;28;20036;-81
2023/10/17 13:45:05;;;;;;;5.38;3.05;;;;;;;;;;10467422;28;20029;-80
2023/10/17 13:50:08;;;;;;;3.65;2.20;;;;;;;;;;10465487;28;20036;-80
2023/10/17 13:55:12;;;;;;;4.25;3.15;;;;;;;;;;10465127;28;20029;-81
2023/10/17 14:00:19;;;;;;;4.05;2.92;;;;;;;;;;10463982;28;20056;-80
2023/10/17 14:05:20;;;;;;;3.22;2.30;;;;;;;;;;10466838;28;20444;-79
2023/10/17 14:10:24;;;;;;;5.38;3.60;;;;;;;;;;10473188;28;20048;-81
2023/10/17 14:15:25;;;;;;;3.95;1.90;;;;;;;;;;10475068;28;20025;-83
2023/10/17 14:20:38;;;;;;;4.32;2.70;;;;;;;;;;10499142;28;20050;-83
2023/10/17 14:31:03;;;;;;;5.55;3.05;;;;;;;;;;10493051;28;20037;-84
2023/10/17 14:36:09;;;;;;;3.40;2.53;;;;;;;;;;10468643;28;20044;-83
2023/10/17 14:41:10;;;;;;;4.72;2.53;;;;;;;;;;10469799;28;20036;-84
2023/10/17 14:46:11;;;;;;;4.60;3.13;;;;;;;;;;10470651;28;20095;-83
2023/10/17 14:51:13;;;;;;;5.88;2.72;;;;;;;;;;10468635;28;20131;-83
2023/10/17 14:56:14;;;;;;;5.35;2.40;;;;;;;;;;10470386;28;20056;-82
2023/10/17 15:01:16;;;;;;;2.90;2.03;;;;;;;;;;10472061;28;20025;-83
2023/10/17 15:06:17;;;;;;;3.33;2.40;;;;;;;;;;10470263;28;20115;-82
2023/10/17 15:11:20;;;;;;;2.28;1.52;;;;;;;;;;10469761;28;20060;-81
2023/10/17 15:16:22;;;;;;;4.88;1.80;;;;;;;;;;10468125;28;20077;-82
2023/10/17 15:21:23;;;;;;;2.83;1.70;;;;;;;;;;10467759;28;20025;-82
2023/10/17 15:26:25;;;;;;;4.35;2.28;;;;;;;;;;10469358;28;20025;-82
2023/10/17 15:31:28;;;;;;;2.60;1.70;;;;;;;;;;10472557;28;20062;-83
2023/10/17 15:36:29;;;;;;;3.08;1.80;;;;;;;;;;10464901;28;20031;-83
2023/10/17 15:41:30;;;;;;;6.30;3.45;;;;;;;;;;10464713;28;20462;-83
2023/10/17 15:46:31;;;;;;;4.18;2.83;;;;;;;;;;10465363;28;20036;-83
2023/10/17 15:51:32;;;;;;;4.00;2.15;;;;;;;;;;10465477;28;20035;-83
2023/10/17 15:56:34;;;;;;;3.53;2.00;;;;;;;;;;10467100;28;20499;-83
2023/10/17 16:01:35;;;;;;;3.03;2.00;;;;;;;;;;10465653;28;20055;-82
2023/10/17 16:06:36;;;;;;;3.30;2.03;;;;;;;;;;10466961;28;20063;-83
2023/10/17 16:11:37;;;;;;;6.22;2.20;;;;;;;;;;10468499;28;20055;-82
2023/10/17 16:16:39;;;;;;;4.18;3.33;;;;;;;;;;10467642;28;20029;-82
2023/10/17 16:21:41;;;;;;;2.63;2.00;;;;;;;;;;10468005;28;20029;-82
2023/10/17 16:26:43;;;;;;;4.97;1.80;;;;;;;;;;10471985;28;20021;-83
2023/10/17 16:31:44;;;;;;;6.10;2.50;;;;;;;;;;10474820;28;20056;-85
2023/10/17 16:36:45;;;;;;;3.03;2.00;;;;;;;;;;10475185;28;20036;-83
2023/10/17 16:41:46;;;;;;;4.72;3.08;;;;;;;;;;10470807;28;20393;-85
2023/10/17 16:46:47;;;;;;;4.68;2.75;;;;;;;;;;10468639;28;20029;-85
2023/10/17 16:51:48;;;;;;;3.03;2.25;;;;;;;;;;10471352;28;20089;-85
2023/10/17 16:56:50;;;;;;;3.30;2.83;;;;;;;;;;10468642;28;20064;-84
2023/10/17 17:01:52;;;;;;;4.10;2.85;;;;;;;;;;10477640;28;20029;-85
2023/10/17 17:06:54;;;;;;;4.75;2.88;;;;;;;;;;10470613;28;20542;-85
2023/10/17 17:11:56;;;;;;;5.45;2.00;;;;;;;;;;10470536;28;20036;-84
2023/10/17 17:16:57;;;;;;;4.00;2.60;;;;;;;;;;10469984;28;20404;-85
2023/10/17 17:21:59;;;;;;;2.30;1.90;;;;;;;;;;10470193;28;20021;-85
2023/10/17 17:27:00;;;;;;;2.45;2.00;;;;;;;;;;10476482;28;20032;-85
2023/10/17 17:32:01;;;;;;;2.50;2.20;;;;;;;;;;10478789;28;20093;-84
2023/10/17 17:37:02;;;;;;;2.42;1.70;;;;;;;;;;10469436;28;20518;-85
2023/10/17 17:42:05;;;;;;;3.42;2.20;;;;;;;;;;10467001;28;20032;-85
2023/10/17 17:47:06;;;;;;;5.18;3.42;;;;;;;;;;10467090;28;20051;-85
2023/10/17 17:52:10;;;;;;;2.65;2.20;;;;;;;;;;10467072;28;20024;-85
2023/10/17 17:57:11;;;;;;;2.78;2.00;;;;;;;;;;10512018;22;20069;-84
2023/10/17 18:02:13;;;;;;;3.00;2.70;;;;;;;;;;10437513;28;20029;-83
2023/10/17 18:07:17;;;;;;;2.65;2.17;;;;;;;;;;10451858;28;20029;-83
2023/10/17 18:12:18;;;;;;;5.25;3.45;;;;;;;;;;10459676;28;20029;-83
2023/10/17 18:17:20;;;;;;;2.53;1.90;;;;;;;;;;10475559;28;20056;-83
2023/10/17 18:22:21;;;;;;;3.47;2.58;;;;;;;;;;10499901;28;20025;-87
2023/10/17 18:27:23;;;;;;;2.53;1.88;;;;;;;;;;10492303;28;20092;-83
2023/10/17 18:32:26;;;;;;;4.20;3.10;;;;;;;;;;10481264;28;20025;-83
2023/10/17 18:37:28;;;;;;;3.75;2.35;;;;;;;;;;10475494;28;20029;-84
2023/10/17 18:42:35;;;;;;;2.95;2.45;;;;;;;;;;10475272;28;20028;-84
2023/10/17 18:47:37;;;;;;;3.13;2.25;;;;;;;;;;10475018;28;20056;-84
2023/10/17 18:52:42;;;;;;;2.85;1.83;;;;;;;;;;10477950;28;20047;-84
2023/10/17 18:57:47;;;;;;;3.05;2.15;;;;;;;;;;10482218;28;20041;-84
2023/10/17 19:02:49;;;;;;;3.58;2.55;;;;;;;;;;10466298;28;20083;-84
2023/10/17 19:07:53;;;;;;;2.17;1.83;;;;;;;;;;10481004;28;20039;-84
